createdAt,value
2022-11-05T00:00:35.385Z,96484.75
2022-11-05T00:01:55.694Z,96484.13
2022-11-05T00:03:16.365Z,96489.16
2022-11-05T00:04:36.714Z,96489.75
2022-11-05T00:05:56.880Z,96476.53
2022-11-05T00:07:30.254Z,96483.72
2022-11-05T00:08:50.375Z,96478.34
2022-11-05T00:10:01.152Z,96474.31
2022-11-05T00:11:02.964Z,96474.13
2022-11-05T00:12:25.415Z,96471.31
2022-11-05T00:13:45.740Z,96473.34
2022-11-05T00:15:05.929Z,96471.75
2022-11-05T00:16:26.222Z,96476.94
2022-11-05T00:17:28.177Z,96484.31
2022-11-05T00:18:30.039Z,96487.72
2022-11-05T00:19:31.894Z,96482.34
2022-11-05T00:20:33.772Z,96489.75
2022-11-05T00:21:55.206Z,96485.94
2022-11-05T00:23:18.866Z,96482.56
2022-11-05T00:24:38.889Z,96482.94
2022-11-05T00:25:40.692Z,96479.34
2022-11-05T00:26:42.540Z,96482.56
2022-11-05T00:27:45.359Z,96475.75
2022-11-05T00:28:48.545Z,96478.53
2022-11-05T00:29:50.382Z,96482.94
2022-11-05T00:30:52.535Z,96486.56
2022-11-05T00:31:54.373Z,96486.56
2022-11-05T00:33:00.526Z,96489.94
2022-11-05T00:34:02.308Z,96491.75
2022-11-05T00:35:04.803Z,96485.53
2022-11-05T00:36:08.231Z,96483.53
2022-11-05T00:37:10.013Z,96489.53
2022-11-05T00:38:11.862Z,96479.97
2022-11-05T00:39:13.680Z,96489.16
2022-11-05T00:40:15.923Z,96485.53
2022-11-05T00:41:17.739Z,96486.97
2022-11-05T00:42:38.145Z,96487.75
2022-11-05T00:43:58.345Z,96487.34
2022-11-05T00:45:03.018Z,96492.75
2022-11-05T00:46:05.034Z,96485.75
2022-11-05T00:47:39.109Z,96490.34
2022-11-05T00:48:59.705Z,96488.53
2022-11-05T00:50:01.560Z,96486.75
2022-11-05T00:51:03.435Z,96491.13
2022-11-05T00:52:23.567Z,96492.13
2022-11-05T00:53:25.434Z,96491.94
2022-11-05T00:54:27.288Z,96490.13
2022-11-05T00:55:33.942Z,96484.94
2022-11-05T00:56:35.826Z,96491.75
2022-11-05T00:57:37.619Z,96500.34
2022-11-05T00:58:39.463Z,96496.53
2022-11-05T00:59:41.249Z,96500.94
2022-11-05T01:00:44.439Z,96497.75
2022-11-05T01:01:46.453Z,96495.94
2022-11-05T01:02:48.653Z,96496.94
2022-11-05T01:03:51.857Z,96494.91
2022-11-05T01:04:53.910Z,96500.94
2022-11-05T01:06:00.104Z,96503.13
2022-11-05T01:07:01.912Z,96508.72
2022-11-05T01:08:03.754Z,96511.94
2022-11-05T01:09:05.631Z,96513.34
2022-11-05T01:10:07.593Z,96511.75
2022-11-05T01:11:13.445Z,96501.31
2022-11-05T01:12:15.266Z,96507.28
2022-11-05T01:13:19.601Z,96508.13
2022-11-05T01:14:22.126Z,96512.13
2022-11-05T01:15:24.010Z,96510.91
2022-11-05T01:16:25.867Z,96512.13
2022-11-05T01:17:27.637Z,96514.53
2022-11-05T01:18:29.552Z,96518.53
2022-11-05T01:19:32.201Z,96524.53
2022-11-05T01:20:34.189Z,96532.13
2022-11-05T01:21:36.301Z,96533.94
2022-11-05T01:22:38.112Z,96538.13
2022-11-05T01:23:39.963Z,96540.94
2022-11-05T01:24:41.671Z,96541.91
2022-11-05T01:25:43.791Z,96545.53
2022-11-05T01:26:45.607Z,96545.53
2022-11-05T01:27:47.415Z,96547.13
2022-11-05T01:28:52.510Z,96552.91
2022-11-05T01:29:54.399Z,96551.34
2022-11-05T01:30:56.499Z,96554.13
2022-11-05T01:31:58.301Z,96554.31
2022-11-05T01:33:00.183Z,96549.28
2022-11-05T01:34:02.188Z,96549.69
2022-11-05T01:35:05.432Z,96548.50
2022-11-05T01:36:07.309Z,96545.72
2022-11-05T01:37:09.102Z,96540.28
2022-11-05T01:38:10.869Z,96545.72
2022-11-05T01:39:12.729Z,96540.50
2022-11-05T01:40:19.097Z,96539.50
2022-11-05T01:41:20.946Z,96530.91
2022-11-05T01:42:23.858Z,96533.50
2022-11-05T01:43:25.756Z,96534.31
2022-11-05T01:45:06.290Z,96533.50
2022-11-05T01:46:08.164Z,96535.31
2022-11-05T01:47:20.717Z,96546.91
2022-11-05T01:48:29.098Z,96539.72
2022-11-05T01:49:33.701Z,96545.31
2022-11-05T01:50:44.577Z,96548.75
2022-11-05T01:51:46.804Z,96552.31
2022-11-05T01:52:50.371Z,96550.13
2022-11-05T01:53:54.627Z,96552.13
2022-11-05T01:54:56.749Z,96553.69
2022-11-05T01:56:03.616Z,96551.72
2022-11-05T01:57:08.671Z,96550.31
2022-11-05T01:58:13.337Z,96547.31
2022-11-05T01:59:18.930Z,96549.91
2022-11-05T02:00:20.793Z,96551.72
2022-11-05T02:01:22.890Z,96554.50
2022-11-05T02:02:25.786Z,96550.91
2022-11-05T02:03:28.683Z,96548.47
2022-11-05T02:04:36.806Z,96544.69
2022-11-05T02:05:40.016Z,96547.28
2022-11-05T02:06:46.840Z,96542.44
2022-11-05T02:07:49.113Z,96550.25
2022-11-05T02:08:56.587Z,96545.66
2022-11-05T02:10:05.884Z,96548.88
2022-11-05T02:11:07.810Z,96549.28
2022-11-05T02:12:10.107Z,96548.31
2022-11-05T02:13:12.230Z,96549.69
2022-11-05T02:14:14.383Z,96553.06
2022-11-05T02:15:17.634Z,96555.06
2022-11-05T02:16:32.098Z,96563.66
2022-11-05T02:17:49.177Z,96566.88
2022-11-05T02:18:50.881Z,96566.69
2022-11-05T02:20:01.727Z,96565.47
2022-11-05T02:21:12.776Z,96572.50
2022-11-05T02:22:27.451Z,96575.28
2022-11-05T02:23:29.249Z,96575.28
2022-11-05T02:24:46.234Z,96575.28
2022-11-05T02:25:51.135Z,96568.06
2022-11-05T02:27:02.491Z,96570.50
2022-11-05T02:28:12.625Z,96567.88
2022-11-05T02:29:14.358Z,96567.72
2022-11-05T02:30:38.818Z,96571.09
2022-11-05T02:31:56.078Z,96552.72
2022-11-05T02:33:04.001Z,96559.50
2022-11-05T02:34:24.545Z,96554.91
2022-11-05T02:35:35.124Z,96559.75
2022-11-05T02:36:40.035Z,96562.13
2022-11-05T02:37:45.901Z,96557.75
2022-11-05T02:39:06.730Z,96554.97
2022-11-05T02:40:34.524Z,96560.94
2022-11-05T02:41:42.575Z,96558.53
2022-11-05T02:42:56.562Z,96566.94
2022-11-05T02:44:10.722Z,96560.94
2022-11-05T02:45:15.535Z,96559.94
2022-11-05T02:46:17.186Z,96557.16
2022-11-05T02:47:37.716Z,96558.78
2022-11-05T02:48:54.310Z,96551.34
2022-11-05T02:50:02.176Z,96545.34
2022-11-05T02:51:22.806Z,96544.34
2022-11-05T02:52:24.872Z,96542.56
2022-11-05T02:53:32.697Z,96533.34
2022-11-05T02:54:36.925Z,96534.97
2022-11-05T02:55:48.140Z,96535.75
2022-11-05T02:56:51.988Z,96542.69
2022-11-05T02:57:53.869Z,96547.72
2022-11-05T02:58:55.591Z,96551.72
2022-11-05T03:00:01.175Z,96557.31
2022-11-05T03:01:07.161Z,96568.47
2022-11-05T03:02:09.103Z,96567.88
2022-11-05T03:03:29.519Z,96556.88
2022-11-05T03:04:32.475Z,96549.44
2022-11-05T03:05:41.969Z,96543.84
2022-11-05T03:06:49.865Z,96548.66
2022-11-05T03:07:56.476Z,96552.47
2022-11-05T03:09:01.071Z,96556.47
2022-11-05T03:10:08.897Z,96564.06
2022-11-05T03:11:15.694Z,96559.69
2022-11-05T03:12:32.890Z,96563.31
2022-11-05T03:13:42.650Z,96560.53
2022-11-05T03:14:53.355Z,96555.09
2022-11-05T03:16:01.423Z,96559.50
2022-11-05T03:17:10.088Z,96562.53
2022-11-05T03:18:15.196Z,96557.31
2022-11-05T03:19:20.859Z,96564.31
2022-11-05T03:20:38.007Z,96571.72
2022-11-05T03:22:12.148Z,96564.88
2022-11-05T03:23:26.225Z,96570.50
2022-11-05T03:24:30.631Z,96568.50
2022-11-05T03:25:34.049Z,96560.53
2022-11-05T03:26:38.278Z,96556.13
2022-11-05T03:27:44.947Z,96555.34
2022-11-05T03:28:49.644Z,96553.94
2022-11-05T03:29:54.688Z,96546.31
2022-11-05T03:30:58.091Z,96548.13
2022-11-05T03:32:02.059Z,96550.72
2022-11-05T03:33:07.153Z,96560.53
2022-11-05T03:34:10.858Z,96569.47
2022-11-05T03:35:15.485Z,96571.28
2022-11-05T03:36:20.870Z,96580.69
2022-11-05T03:37:23.423Z,96581.31
2022-11-05T03:38:29.465Z,96594.91
2022-11-05T03:39:39.131Z,96594.91
2022-11-05T03:40:41.837Z,96592.91
2022-11-05T03:41:45.236Z,96598.13
2022-11-05T03:42:49.712Z,96592.69
2022-11-05T03:43:55.485Z,96596.13
2022-11-05T03:44:59.073Z,96601.31
2022-11-05T03:46:09.525Z,96606.09
2022-11-05T03:47:13.426Z,96597.28
2022-11-05T03:48:17.208Z,96592.91
2022-11-05T03:49:24.565Z,96591.91
2022-11-05T03:50:40.955Z,96592.50
2022-11-05T03:51:43.189Z,96594.94
2022-11-05T03:52:55.327Z,96591.94
2022-11-05T03:53:59.125Z,96601.53
2022-11-05T03:55:00.941Z,96601.31
2022-11-05T03:56:19.495Z,96609.91
2022-11-05T03:57:24.316Z,96609.91
2022-11-05T03:58:26.570Z,96605.50
2022-11-05T03:59:29.987Z,96611.50
2022-11-05T04:00:31.912Z,96614.91
2022-11-05T04:01:33.946Z,96607.91
2022-11-05T04:02:37.740Z,96604.13
2022-11-05T04:03:39.662Z,96599.75
2022-11-05T04:04:41.737Z,96612.13
2022-11-05T04:05:43.734Z,96608.91
2022-11-05T04:07:03.883Z,96614.91
2022-11-05T04:08:24.765Z,96620.53
2022-11-05T04:09:45.018Z,96618.56
2022-11-05T04:11:05.119Z,96621.16
2022-11-05T04:12:25.201Z,96618.13
2022-11-05T04:13:28.198Z,96619.72
2022-11-05T04:14:30.919Z,96615.34
2022-11-05T04:15:55.505Z,96612.75
2022-11-05T04:17:12.563Z,96612.13
2022-11-05T04:18:14.424Z,96618.72
2022-11-05T04:19:36.197Z,96615.34
2022-11-05T04:20:56.360Z,96617.72
2022-11-05T04:22:16.514Z,96614.16
2022-11-05T04:23:36.599Z,96604.97
2022-11-05T04:24:38.447Z,96606.53
2022-11-05T04:25:40.262Z,96610.16
2022-11-05T04:26:44.005Z,96610.94
2022-11-05T04:27:46.199Z,96607.38
2022-11-05T04:29:11.158Z,96606.97
2022-11-05T04:30:19.584Z,96602.56
2022-11-05T04:31:21.478Z,96610.97
2022-11-05T04:32:23.336Z,96606.19
2022-11-05T04:33:25.084Z,96611.97
2022-11-05T04:34:27.004Z,96617.34
2022-11-05T04:35:42.200Z,96615.94
2022-11-05T04:36:43.974Z,96615.53
2022-11-05T04:37:45.812Z,96620.72
2022-11-05T04:38:47.620Z,96615.53
2022-11-05T04:39:49.466Z,96614.72
2022-11-05T04:40:51.235Z,96622.72
2022-11-05T04:41:53.113Z,96625.31
2022-11-05T04:42:55.697Z,96622.72
2022-11-05T04:43:57.468Z,96619.09
2022-11-05T04:44:59.347Z,96624.91
2022-11-05T04:46:01.118Z,96622.91
2022-11-05T04:47:03.002Z,96623.34
2022-11-05T04:48:05.198Z,96622.97
2022-11-05T04:49:07.047Z,96618.56
2022-11-05T04:50:10.888Z,96609.38
2022-11-05T04:51:12.762Z,96616.56
2022-11-05T04:52:14.518Z,96610.53
2022-11-05T04:53:16.365Z,96623.34
2022-11-05T04:54:18.184Z,96629.75
2022-11-05T04:55:20.119Z,96632.16
2022-11-05T04:56:23.077Z,96639.13
2022-11-05T04:57:24.940Z,96641.13
2022-11-05T04:58:26.813Z,96644.91
2022-11-05T04:59:28.625Z,96656.50
2022-11-05T05:00:30.530Z,96655.69
2022-11-05T05:01:32.613Z,96654.69
2022-11-05T05:02:35.407Z,96651.84
2022-11-05T05:03:37.221Z,96649.25
2022-11-05T05:04:39.082Z,96648.09
2022-11-05T05:05:40.879Z,96650.88
2022-11-05T05:06:42.724Z,96643.66
2022-11-05T05:07:44.625Z,96642.44
2022-11-05T05:08:50.066Z,96641.22
2022-11-05T05:09:51.809Z,96644.44
2022-11-05T05:10:53.682Z,96651.66
2022-11-05T05:11:55.534Z,96655.84
2022-11-05T05:12:57.568Z,96657.66
2022-11-05T05:13:59.438Z,96660.25
2022-11-05T05:15:01.224Z,96659.88
2022-11-05T05:16:07.484Z,96656.25
2022-11-05T05:17:09.383Z,96659.47
2022-11-05T05:18:11.207Z,96653.28
2022-11-05T05:19:13.095Z,96658.88
2022-11-05T05:20:33.149Z,96658.88
2022-11-05T05:21:41.181Z,96661.47
2022-11-05T05:22:43.142Z,96664.84
2022-11-05T05:23:45.498Z,96667.66
2022-11-05T05:24:52.410Z,96663.25
2022-11-05T05:25:54.623Z,96670.47
2022-11-05T05:26:56.523Z,96667.69
2022-11-05T05:27:58.792Z,96664.91
2022-11-05T05:29:00.652Z,96669.91
2022-11-05T05:30:02.555Z,96670.53
2022-11-05T05:31:04.421Z,96670.31
2022-11-05T05:32:06.477Z,96664.94
2022-11-05T05:33:08.416Z,96670.75
2022-11-05T05:34:14.485Z,96668.94
2022-11-05T05:35:16.824Z,96667.34
2022-11-05T05:36:18.605Z,96665.53
2022-11-05T05:37:20.501Z,96677.13
2022-11-05T05:38:22.398Z,96666.31
2022-11-05T05:39:24.278Z,96664.91
2022-11-05T05:40:26.130Z,96656.31
2022-11-05T05:41:27.978Z,96673.31
2022-11-05T05:42:29.897Z,96672.31
2022-11-05T05:43:32.750Z,96673.75
2022-11-05T05:44:34.606Z,96677.13
2022-11-05T05:45:36.746Z,96686.91
2022-11-05T05:46:38.693Z,96687.91
2022-11-05T05:47:40.560Z,96693.72
2022-11-05T05:48:42.908Z,96684.13
2022-11-05T05:49:44.773Z,96680.34
2022-11-05T05:50:46.556Z,96689.72
2022-11-05T05:51:48.833Z,96683.75
2022-11-05T05:52:50.770Z,96690.13
2022-11-05T05:53:53.969Z,96685.13
2022-11-05T05:54:55.845Z,96692.13
2022-11-05T05:55:58.288Z,96694.53
2022-11-05T05:57:00.145Z,96692.72
2022-11-05T05:58:01.925Z,96696.28
2022-11-05T05:59:05.120Z,96694.66
2022-11-05T06:00:07.334Z,96691.09
2022-11-05T06:01:15.587Z,96690.72
2022-11-05T06:02:20.964Z,96692.50
2022-11-05T06:03:22.897Z,96689.09
2022-11-05T06:04:24.846Z,96688.50
2022-11-05T06:05:26.755Z,96686.06
2022-11-05T06:06:28.664Z,96681.66
2022-11-05T06:07:35.952Z,96684.09
2022-11-05T06:08:39.531Z,96692.50
2022-11-05T06:09:41.447Z,96685.09
2022-11-05T06:10:43.313Z,96691.88
2022-11-05T06:11:45.222Z,96687.28
2022-11-05T06:12:47.058Z,96690.50
2022-11-05T06:13:48.998Z,96695.69
2022-11-05T06:14:50.882Z,96694.72
2022-11-05T06:15:53.098Z,96701.31
2022-11-05T06:16:54.971Z,96697.31
2022-11-05T06:17:56.798Z,96707.53
2022-11-05T06:18:58.540Z,96713.53
2022-11-05T06:20:00.408Z,96712.72
2022-11-05T06:21:06.535Z,96713.53
2022-11-05T06:22:08.349Z,96716.72
2022-11-05T06:23:10.368Z,96716.72
2022-11-05T06:24:12.428Z,96721.13
2022-11-05T06:25:14.294Z,96722.72
2022-11-05T06:26:17.542Z,96713.53
2022-11-05T06:27:19.354Z,96706.72
2022-11-05T06:28:21.149Z,96707.72
2022-11-05T06:29:23.053Z,96708.50
2022-11-05T06:30:25.074Z,96706.72
2022-11-05T06:31:26.896Z,96708.69
2022-11-05T06:32:28.962Z,96709.09
2022-11-05T06:33:30.866Z,96715.28
2022-11-05T06:34:32.708Z,96713.50
2022-11-05T06:35:34.665Z,96718.47
2022-11-05T06:36:36.514Z,96714.84
2022-11-05T06:37:38.756Z,96717.25
2022-11-05T06:38:40.693Z,96719.66
2022-11-05T06:39:42.512Z,96729.88
2022-11-05T06:40:44.356Z,96739.88
2022-11-05T06:42:12.013Z,96740.50
2022-11-05T06:43:08.450Z,96747.94
2022-11-05T06:44:10.427Z,96745.16
2022-11-05T06:45:12.231Z,96744.31
2022-11-05T06:46:14.136Z,96747.53
2022-11-05T06:47:16.089Z,96749.34
2022-11-05T06:48:17.930Z,96750.13
2022-11-05T06:49:19.798Z,96749.94
2022-11-05T06:50:21.577Z,96749.75
2022-11-05T06:51:24.893Z,96748.75
2022-11-05T06:52:27.612Z,96753.75
2022-11-05T06:53:29.426Z,96757.00
2022-11-05T06:54:31.247Z,96757.81
2022-11-05T06:55:33.042Z,96753.44
2022-11-05T06:56:34.892Z,96759.59
2022-11-05T06:57:37.798Z,96759.44
2022-11-05T06:58:39.639Z,96757.75
2022-11-05T06:59:41.987Z,96763.34
2022-11-05T07:00:43.857Z,96765.94
2022-11-05T07:01:45.802Z,96771.53
2022-11-05T07:02:47.739Z,96772.16
2022-11-05T07:03:50.174Z,96769.75
2022-11-05T07:04:52.002Z,96774.75
2022-11-05T07:05:53.837Z,96783.16
2022-11-05T07:06:55.712Z,96783.81
2022-11-05T07:07:57.559Z,96786.41
2022-11-05T07:08:59.540Z,96792.03
2022-11-05T07:10:01.317Z,96785.75
2022-11-05T07:11:03.344Z,96797.00
2022-11-05T07:12:05.332Z,96790.81
2022-11-05T07:13:08.663Z,96796.16
2022-11-05T07:14:10.842Z,96794.56
2022-11-05T07:15:13.112Z,96797.81
2022-11-05T07:16:14.950Z,96794.56
2022-11-05T07:17:19.543Z,96801.56
2022-11-05T07:18:21.479Z,96803.97
2022-11-05T07:19:23.299Z,96803.34
2022-11-05T07:20:29.379Z,96802.13
2022-11-05T07:21:34.329Z,96802.88
2022-11-05T07:22:36.158Z,96805.69
2022-11-05T07:23:38.072Z,96805.28
2022-11-05T07:24:39.881Z,96809.09
2022-11-05T07:25:42.743Z,96809.22
2022-11-05T07:26:44.680Z,96816.41
2022-11-05T07:27:46.507Z,96815.41
2022-11-05T07:28:48.381Z,96814.34
2022-11-05T07:29:50.248Z,96810.34
2022-11-05T07:30:52.141Z,96813.56
2022-11-05T07:31:54.034Z,96817.56
2022-11-05T07:32:56.020Z,96822.22
2022-11-05T07:33:59.432Z,96824.25
2022-11-05T07:35:01.262Z,96817.88
2022-11-05T07:36:03.105Z,96827.91
2022-11-05T07:37:04.962Z,96827.31
2022-11-05T07:38:06.881Z,96827.94
2022-11-05T07:39:08.692Z,96828.38
2022-11-05T07:40:11.851Z,96829.00
2022-11-05T07:41:13.688Z,96832.22
2022-11-05T07:42:15.471Z,96836.63
2022-11-05T07:43:17.478Z,96834.81
2022-11-05T07:44:21.924Z,96835.44
2022-11-05T07:45:24.680Z,96834.44
2022-11-05T07:46:26.583Z,96835.03
2022-11-05T07:47:28.499Z,96833.66
2022-11-05T07:48:30.438Z,96830.09
2022-11-05T07:49:32.363Z,96835.91
2022-11-05T07:50:35.746Z,96835.91
2022-11-05T07:51:37.668Z,96836.91
2022-11-05T07:52:39.560Z,96840.50
2022-11-05T07:53:45.262Z,96844.91
2022-11-05T07:54:47.624Z,96839.69
2022-11-05T07:55:49.575Z,96845.50
2022-11-05T07:56:51.371Z,96831.72
2022-11-05T07:57:53.164Z,96844.31
2022-11-05T07:58:54.953Z,96839.13
2022-11-05T07:59:56.749Z,96836.16
2022-11-05T08:00:58.825Z,96839.38
2022-11-05T08:02:00.775Z,96839.38
2022-11-05T08:03:29.237Z,96841.56
2022-11-05T08:04:31.124Z,96843.19
2022-11-05T08:05:37.249Z,96844.78
2022-11-05T08:06:39.132Z,96842.19
2022-11-05T08:07:41.058Z,96841.19
2022-11-05T08:08:42.887Z,96832.38
2022-11-05T08:09:44.713Z,96843.81
2022-11-05T08:10:46.897Z,96839.75
2022-11-05T08:11:51.185Z,96841.56
2022-11-05T08:12:55.873Z,96845.56
2022-11-05T08:13:57.669Z,96842.78
2022-11-05T08:14:59.520Z,96848.41
2022-11-05T08:16:02.247Z,96838.63
2022-11-05T08:17:04.254Z,96840.44
2022-11-05T08:18:07.371Z,96835.22
2022-11-05T08:19:09.342Z,96844.63
2022-11-05T08:20:11.986Z,96846.25
2022-11-05T08:21:13.826Z,96849.47
2022-11-05T08:22:15.618Z,96845.06
2022-11-05T08:23:17.542Z,96846.66
2022-11-05T08:24:19.334Z,96845.66
2022-11-05T08:25:21.246Z,96842.88
2022-11-05T08:26:23.068Z,96850.28
2022-11-05T08:27:24.897Z,96844.28
2022-11-05T08:28:27.142Z,96847.06
2022-11-05T08:29:29.001Z,96842.88
2022-11-05T08:30:31.598Z,96846.88
2022-11-05T08:31:33.542Z,96842.47
2022-11-05T08:32:35.998Z,96848.50
2022-11-05T08:33:37.905Z,96848.69
2022-11-05T08:34:39.798Z,96845.25
2022-11-05T08:35:41.703Z,96849.66
2022-11-05T08:36:46.693Z,96853.72
2022-11-05T08:37:48.549Z,96848.91
2022-11-05T08:38:50.373Z,96849.72
2022-11-05T08:39:52.207Z,96840.31
2022-11-05T08:40:57.822Z,96838.72
2022-11-05T08:41:59.801Z,96846.88
2022-11-05T08:43:05.387Z,96846.53
2022-11-05T08:44:09.040Z,96843.50
2022-11-05T08:45:10.876Z,96845.75
2022-11-05T08:46:12.845Z,96849.75
2022-11-05T08:47:14.659Z,96839.97
2022-11-05T08:48:17.304Z,96848.56
2022-11-05T08:49:19.125Z,96849.56
2022-11-05T08:50:20.943Z,96847.75
2022-11-05T08:51:22.816Z,96856.97
2022-11-05T08:52:24.641Z,96857.78
2022-11-05T08:53:26.460Z,96846.75
2022-11-05T08:54:28.907Z,96847.56
2022-11-05T08:55:31.111Z,96855.56
2022-11-05T08:56:32.936Z,96858.16
2022-11-05T08:57:34.798Z,96858.78
2022-11-05T08:58:36.616Z,96857.16
2022-11-05T08:59:38.445Z,96863.38
2022-11-05T09:00:40.401Z,96855.38
2022-11-05T09:01:42.565Z,96862.97
2022-11-05T09:02:44.502Z,96863.81
2022-11-05T09:03:46.373Z,96866.59
2022-11-05T09:04:48.262Z,96871.19
2022-11-05T09:05:50.056Z,96869.38
2022-11-05T09:06:51.902Z,96870.78
2022-11-05T09:07:59.447Z,96873.38
2022-11-05T09:09:02.952Z,96870.16
2022-11-05T09:10:04.998Z,96867.38
2022-11-05T09:11:06.905Z,96871.97
2022-11-05T09:12:13.069Z,96871.00
2022-11-05T09:13:19.472Z,96870.00
2022-11-05T09:14:22.340Z,96862.19
2022-11-05T09:15:24.807Z,96873.38
2022-11-05T09:16:27.065Z,96870.59
2022-11-05T09:17:28.901Z,96870.59
2022-11-05T09:18:31.076Z,96879.81
2022-11-05T09:19:36.621Z,96871.81
2022-11-05T09:20:41.991Z,96876.66
2022-11-05T09:21:43.873Z,96873.22
2022-11-05T09:22:46.539Z,96875.81
2022-11-05T09:23:49.414Z,96873.03
2022-11-05T09:24:51.223Z,96879.03
2022-11-05T09:25:53.047Z,96871.84
2022-11-05T09:26:54.942Z,96868.25
2022-11-05T09:28:06.159Z,96869.25
2022-11-05T09:29:13.167Z,96872.66
2022-11-05T09:30:16.607Z,96866.63
2022-11-05T09:31:18.499Z,96869.06
2022-11-05T09:32:21.244Z,96869.84
2022-11-05T09:33:24.970Z,96878.66
2022-11-05T09:34:27.007Z,96876.44
2022-11-05T09:35:28.816Z,96876.66
2022-11-05T09:36:30.628Z,96876.03
2022-11-05T09:37:32.444Z,96880.41
2022-11-05T09:38:37.667Z,96880.25
2022-11-05T09:39:39.478Z,96885.06
2022-11-05T09:40:59.892Z,96891.69
2022-11-05T09:42:04.910Z,96891.50
2022-11-05T09:43:06.988Z,96894.28
2022-11-05T09:44:30.638Z,96896.66
2022-11-05T09:45:34.483Z,96894.66
2022-11-05T09:46:43.299Z,96899.50
2022-11-05T09:47:50.096Z,96894.09
2022-11-05T09:48:57.718Z,96895.69
2022-11-05T09:50:01.409Z,96890.31
2022-11-05T09:51:04.929Z,96901.31
2022-11-05T09:52:12.749Z,96893.34
2022-11-05T09:53:16.188Z,96889.72
2022-11-05T09:54:18.127Z,96902.94
2022-11-05T09:55:32.302Z,96896.13
2022-11-05T09:56:37.235Z,96899.72
2022-11-05T09:57:46.019Z,96910.16
2022-11-05T09:58:57.536Z,96905.31
2022-11-05T10:00:01.780Z,96902.28
2022-11-05T10:01:06.040Z,96905.91
2022-11-05T10:02:18.863Z,96905.91
2022-11-05T10:03:23.167Z,96914.50
2022-11-05T10:04:27.403Z,96911.91
2022-11-05T10:05:29.984Z,96912.69
2022-11-05T10:06:31.925Z,96917.72
2022-11-05T10:07:40.561Z,96904.69
2022-11-05T10:08:44.527Z,96906.28
2022-11-05T10:09:48.260Z,96905.31
2022-11-05T10:10:52.839Z,96906.94
2022-11-05T10:11:58.307Z,96902.94
2022-11-05T10:13:02.880Z,96896.72
2022-11-05T10:14:37.216Z,96894.13
2022-11-05T10:15:43.531Z,96890.91
2022-11-05T10:16:49.339Z,96896.31
2022-11-05T10:18:04.096Z,96899.72
2022-11-05T10:19:06.766Z,96902.34
2022-11-05T10:20:31.413Z,96900.34
2022-11-05T10:22:04.189Z,96901.94
2022-11-05T10:22:56.316Z,96911.38
2022-11-05T10:23:58.190Z,96907.75
2022-11-05T10:25:00.694Z,96902.53
2022-11-05T10:26:14.134Z,96904.56
2022-11-05T10:27:32.955Z,96901.78
2022-11-05T10:28:35.493Z,96905.16
2022-11-05T10:29:37.418Z,96897.97
2022-11-05T10:30:39.268Z,96898.78
2022-11-05T10:31:41.273Z,96897.00
2022-11-05T10:32:44.355Z,96892.56
2022-11-05T10:33:48.031Z,96900.00
2022-11-05T10:34:50.714Z,96892.81
2022-11-05T10:35:54.916Z,96898.63
2022-11-05T10:36:57.171Z,96895.00
2022-11-05T10:37:59.153Z,96898.84
2022-11-05T10:39:06.079Z,96900.22
2022-11-05T10:40:28.601Z,96897.25
2022-11-05T10:41:33.370Z,96903.88
2022-11-05T10:42:58.110Z,96896.66
2022-11-05T10:44:18.648Z,96898.47
2022-11-05T10:45:29.778Z,96900.31
2022-11-05T10:46:36.565Z,96902.94
2022-11-05T10:47:47.026Z,96906.16
2022-11-05T10:49:15.487Z,96896.34
2022-11-05T10:50:21.818Z,96890.91
2022-11-05T10:51:23.814Z,96894.16
2022-11-05T10:52:28.548Z,96888.72
2022-11-05T10:53:32.338Z,96889.31
2022-11-05T10:54:35.677Z,96885.53
2022-11-05T10:55:42.525Z,96890.34
2022-11-05T10:56:44.524Z,96885.75
2022-11-05T10:57:47.484Z,96885.75
2022-11-05T10:58:56.704Z,96887.34
2022-11-05T11:00:30.995Z,96896.16
2022-11-05T11:01:33.094Z,96894.97
2022-11-05T11:02:35.884Z,96905.81
2022-11-05T11:03:48.149Z,96902.22
2022-11-05T11:04:53.976Z,96908.22
2022-11-05T11:06:03.065Z,96912.22
2022-11-05T11:07:05.265Z,96914.03
2022-11-05T11:08:22.232Z,96916.03
2022-11-05T11:09:28.649Z,96916.63
2022-11-05T11:10:36.619Z,96916.41
2022-11-05T11:11:40.956Z,96918.03
2022-11-05T11:12:43.605Z,96912.81
2022-11-05T11:13:57.105Z,96917.44
2022-11-05T11:15:01.986Z,96916.81
2022-11-05T11:16:14.678Z,96915.00
2022-11-05T11:17:18.482Z,96908.41
2022-11-05T11:18:27.416Z,96909.97
2022-11-05T11:19:33.916Z,96914.59
2022-11-05T11:20:44.049Z,96908.41
2022-11-05T11:21:45.888Z,96916.22
2022-11-05T11:23:01.070Z,96915.38
2022-11-05T11:24:04.617Z,96925.81
2022-11-05T11:25:23.528Z,96917.63
2022-11-05T11:26:30.101Z,96921.81
2022-11-05T11:27:33.613Z,96911.19
2022-11-05T11:28:37.748Z,96916.41
2022-11-05T11:29:43.967Z,96931.06
2022-11-05T11:30:51.850Z,96921.25
2022-11-05T11:31:57.392Z,96925.06
2022-11-05T11:33:04.829Z,96921.06
2022-11-05T11:34:12.577Z,96924.28
2022-11-05T11:35:24.476Z,96930.09
2022-11-05T11:36:27.432Z,96930.47
2022-11-05T11:37:30.741Z,96931.91
2022-11-05T11:38:33.884Z,96928.28
2022-11-05T11:39:37.107Z,96928.28
2022-11-05T11:40:38.989Z,96932.50
2022-11-05T11:41:44.528Z,96929.72
2022-11-05T11:42:47.869Z,96930.31
2022-11-05T11:43:54.553Z,96925.72
2022-11-05T11:44:59.430Z,96929.09
2022-11-05T11:46:06.091Z,96922.88
2022-11-05T11:47:12.747Z,96921.88
2022-11-05T11:48:19.366Z,96915.66
2022-11-05T11:49:39.702Z,96917.28
2022-11-05T11:50:42.770Z,96918.69
2022-11-05T11:51:49.946Z,96916.69
2022-11-05T11:52:52.556Z,96917.91
2022-11-05T11:53:57.261Z,96916.50
2022-11-05T11:55:18.382Z,96923.13
2022-11-05T11:56:21.074Z,96922.72
2022-11-05T11:57:27.378Z,96924.31
2022-11-05T11:58:40.660Z,96927.56
2022-11-05T12:00:07.351Z,96924.72
2022-11-05T12:01:13.228Z,96922.72
2022-11-05T12:02:33.563Z,96924.16
2022-11-05T12:03:40.515Z,96923.72
2022-11-05T12:05:03.922Z,96931.38
2022-11-05T12:06:13.123Z,96922.53
2022-11-05T12:07:25.598Z,96917.09
2022-11-05T12:08:36.368Z,96922.31
2022-11-05T12:09:38.346Z,96931.16
2022-11-05T12:10:55.393Z,96924.13
2022-11-05T12:12:26.377Z,96924.75
2022-11-05T12:13:46.847Z,96928.75
2022-11-05T12:14:54.487Z,96919.94
2022-11-05T12:15:58.032Z,96911.50
2022-11-05T12:17:02.862Z,96921.53
2022-11-05T12:18:16.962Z,96917.09
2022-11-05T12:19:24.618Z,96918.13
2022-11-05T12:20:26.492Z,96917.09
2022-11-05T12:21:51.281Z,96918.13
2022-11-05T12:23:00.439Z,96915.91
2022-11-05T12:24:10.601Z,96918.34
2022-11-05T12:25:27.683Z,96917.13
2022-11-05T12:26:49.749Z,96921.94
2022-11-05T12:27:51.507Z,96913.69
2022-11-05T12:29:18.448Z,96918.13
2022-11-05T12:30:21.964Z,96920.91
2022-11-05T12:31:37.458Z,96916.31
2022-11-05T12:32:58.075Z,96917.91
2022-11-05T12:34:11.153Z,96920.72
2022-11-05T12:35:18.544Z,96913.09
2022-11-05T12:36:20.762Z,96914.09
2022-11-05T12:37:31.455Z,96910.50
2022-11-05T12:38:39.607Z,96912.69
2022-11-05T12:39:41.486Z,96909.09
2022-11-05T12:40:47.269Z,96918.50
2022-11-05T12:42:12.106Z,96918.31
2022-11-05T12:43:37.014Z,96921.53
2022-11-05T12:44:53.959Z,96913.50
2022-11-05T12:46:14.524Z,96914.28
2022-11-05T12:47:16.364Z,96918.34
2022-11-05T12:48:41.486Z,96918.34
2022-11-05T12:49:54.109Z,96915.13
2022-11-05T12:51:02.571Z,96912.50
2022-11-05T12:52:18.097Z,96911.91
2022-11-05T12:53:19.841Z,96915.13
2022-11-05T12:54:24.423Z,96913.31